﻿<?xml version="1.0" encoding="utf-8"?><gpx creator="Garmin Desktop App" version="1.1" xsi:schemaLocation="http://www.topografix.com/GPX/1/1 http://www.topografix.com/GPX/1/1/gpx.xsd http://www.garmin.com/xmlschemas/WaypointExtension/v1 http://www8.garmin.com/xmlschemas/WaypointExtensionv1.xsd http://www.garmin.com/xmlschemas/TrackPointExtension/v1 http://www.garmin.com/xmlschemas/TrackPointExtensionv1.xsd http://www.garmin.com/xmlschemas/GpxExtensions/v3 http://www8.garmin.com/xmlschemas/GpxExtensionsv3.xsd http://www.garmin.com/xmlschemas/ActivityExtension/v1 http://www8.garmin.com/xmlschemas/ActivityExtensionv1.xsd http://www.garmin.com/xmlschemas/AdventuresExtensions/v1 http://www8.garmin.com/xmlschemas/AdventuresExtensionv1.xsd http://www.garmin.com/xmlschemas/PressureExtension/v1 http://www.garmin.com/xmlschemas/PressureExtensionv1.xsd http://www.garmin.com/xmlschemas/TripExtensions/v1 http://www.garmin.com/xmlschemas/TripExtensionsv1.xsd http://www.garmin.com/xmlschemas/TripMetaDataExtensions/v1 http://www.garmin.com/xmlschemas/TripMetaDataExtensionsv1.xsd http://www.garmin.com/xmlschemas/ViaPointTransportationModeExtensions/v1 http://www.garmin.com/xmlschemas/ViaPointTransportationModeExtensionsv1.xsd http://www.garmin.com/xmlschemas/CreationTimeExtension/v1 http://www.garmin.com/xmlschemas/CreationTimeExtensionsv1.xsd http://www.garmin.com/xmlschemas/AccelerationExtension/v1 http://www.garmin.com/xmlschemas/AccelerationExtensionv1.xsd http://www.garmin.com/xmlschemas/PowerExtension/v1 http://www.garmin.com/xmlschemas/PowerExtensionv1.xsd http://www.garmin.com/xmlschemas/VideoExtension/v1 http://www.garmin.com/xmlschemas/VideoExtensionv1.xsd" xmlns="http://www.topografix.com/GPX/1/1" xmlns:xsi="http://www.w3.org/2001/XMLSchema-instance" xmlns:wptx1="http://www.garmin.com/xmlschemas/WaypointExtension/v1" xmlns:gpxtrx="http://www.garmin.com/xmlschemas/GpxExtensions/v3" xmlns:gpxtpx="http://www.garmin.com/xmlschemas/TrackPointExtension/v1" xmlns:gpxx="http://www.garmin.com/xmlschemas/GpxExtensions/v3" xmlns:trp="http://www.garmin.com/xmlschemas/TripExtensions/v1" xmlns:adv="http://www.garmin.com/xmlschemas/AdventuresExtensions/v1" xmlns:prs="http://www.garmin.com/xmlschemas/PressureExtension/v1" xmlns:tmd="http://www.garmin.com/xmlschemas/TripMetaDataExtensions/v1" xmlns:vptm="http://www.garmin.com/xmlschemas/ViaPointTransportationModeExtensions/v1" xmlns:ctx="http://www.garmin.com/xmlschemas/CreationTimeExtension/v1" xmlns:gpxacc="http://www.garmin.com/xmlschemas/AccelerationExtension/v1" xmlns:gpxpx="http://www.garmin.com/xmlschemas/PowerExtension/v1" xmlns:vidx1="http://www.garmin.com/xmlschemas/VideoExtension/v1">

  <metadata>
    <link href="http://www.garmin.com">
      <text>Garmin International</text>
    </link>
    <time>2022-10-30T19:39:36Z</time>
    <bounds maxlat="51.075025973841548" maxlon="4.565408416092396" minlat="51.067666998133063" minlon="4.539190996438265" />
  </metadata>

  <trk>
    <name>Sint katelijne- ruiterpad 6 km</name>
    <extensions>
      <gpxx:TrackExtension>
        <gpxx:DisplayColor>Red</gpxx:DisplayColor>
      </gpxx:TrackExtension>
    </extensions>
    <trkseg>
      <trkpt lat="51.075025973841548" lon="4.541810005903244">
        <ele>6.651</ele>
        <time>2020-09-06T10:12:04Z</time>
      </trkpt>
      <trkpt lat="51.074860012158751" lon="4.541691988706589">
        <ele>6.601</ele>
        <time>2020-09-06T10:12:19Z</time>
      </trkpt>
      <trkpt lat="51.074761021882296" lon="4.541082959622145">
        <ele>6.611</ele>
        <time>2020-09-06T10:12:53Z</time>
      </trkpt>
      <trkpt lat="51.074164984747767" lon="4.541105004027486">
        <ele>8.308</ele>
        <time>2020-09-06T10:13:58Z</time>
      </trkpt>
      <trkpt lat="51.073796013370156" lon="4.541996000334621">
        <ele>12.01</ele>
        <time>2020-09-06T10:16:02Z</time>
      </trkpt>
      <trkpt lat="51.073338026180863" lon="4.542183000594378">
        <ele>6.581</ele>
        <time>2020-09-06T10:16:44Z</time>
      </trkpt>
      <trkpt lat="51.07354698702693" lon="4.54667704179883">
        <ele>7.297</ele>
        <time>2020-09-06T10:23:55Z</time>
      </trkpt>
      <trkpt lat="51.073019010946155" lon="4.547017011791468">
        <ele>7.176</ele>
        <time>2020-09-06T10:27:31Z</time>
      </trkpt>
      <trkpt lat="51.072210827842355" lon="4.548349566757679">
        <ele>9.683999999999999</ele>
        <time>2020-09-06T10:29:09Z</time>
      </trkpt>
      <trkpt lat="51.071472046896815" lon="4.550570268183947">
        <ele>10.018000000000001</ele>
        <time>2020-09-06T10:32:21Z</time>
      </trkpt>
      <trkpt lat="51.070657409727573" lon="4.550509164109826">
        <ele>7.592</ele>
        <time>2020-09-06T10:35:24Z</time>
      </trkpt>
      <trkpt lat="51.071174070239067" lon="4.552988782525063">
        <ele>9.452</ele>
        <time>2020-09-06T10:38:32Z</time>
      </trkpt>
      <trkpt lat="51.070145023986697" lon="4.554525017738342">
        <ele>11.662000000000001</ele>
        <time>2020-09-06T10:41:13Z</time>
      </trkpt>
      <trkpt lat="51.070106970146298" lon="4.555112002417445">
        <ele>10.782999999999999</ele>
        <time>2020-09-06T10:41:59Z</time>
      </trkpt>
      <trkpt lat="51.069406997412443" lon="4.556941017508507">
        <ele>9.211</ele>
        <time>2020-09-06T10:48:33Z</time>
      </trkpt>
      <trkpt lat="51.068995026871562" lon="4.558717980980873">
        <ele>8.908</ele>
        <time>2020-09-06T10:50:34Z</time>
      </trkpt>
      <trkpt lat="51.067666998133063" lon="4.562553958967328">
        <ele>9.791</ele>
        <time>2020-09-06T10:57:37Z</time>
      </trkpt>
      <trkpt lat="51.067759031429887" lon="4.563071960583329">
        <ele>9.561999999999999</ele>
        <time>2020-09-06T10:58:08Z</time>
      </trkpt>
      <trkpt lat="51.068597976118326" lon="4.564995020627976">
        <ele>7.468</ele>
        <time>2020-09-06T11:00:22Z</time>
      </trkpt>
      <trkpt lat="51.068737031891942" lon="4.565017987042666">
        <ele>7.837</ele>
        <time>2020-09-06T11:00:35Z</time>
      </trkpt>
      <trkpt lat="51.069217985495925" lon="4.564215000718832">
        <ele>7.975</ele>
        <time>2020-09-06T11:01:44Z</time>
      </trkpt>
      <trkpt lat="51.069406997412443" lon="4.563408996909857">
        <ele>7.979</ele>
        <time>2020-09-06T11:02:35Z</time>
      </trkpt>
      <trkpt lat="51.07030101120472" lon="4.564505014568567">
        <ele>9.712999999999999</ele>
        <time>2020-09-06T11:04:09Z</time>
      </trkpt>
      <trkpt lat="51.070334706455469" lon="4.564864682033658">
        <ele>9.443</ele>
        <time>2020-09-06T11:04:44Z</time>
      </trkpt>
      <trkpt lat="51.070655398070812" lon="4.565408416092396">
        <ele>9.462999999999999</ele>
        <time>2020-09-06T11:05:08Z</time>
      </trkpt>
      <trkpt lat="51.071692910045385" lon="4.563817614689469">
        <ele>7.944</ele>
        <time>2020-09-06T11:09:16Z</time>
      </trkpt>
      <trkpt lat="51.07253554277122" lon="4.563032314181328">
        <ele>10.618</ele>
        <time>2020-09-06T11:09:52Z</time>
      </trkpt>
      <trkpt lat="51.073365602642298" lon="4.56152206286788">
        <ele>8.908</ele>
        <time>2020-09-06T11:10:40Z</time>
      </trkpt>
      <trkpt lat="51.072843661531806" lon="4.560273578390479">
        <ele>7.621</ele>
        <time>2020-09-06T11:11:31Z</time>
      </trkpt>
      <trkpt lat="51.07330952771008" lon="4.559258446097374">
        <ele>5.682</ele>
        <time>2020-09-06T11:12:26Z</time>
      </trkpt>
      <trkpt lat="51.0722965747118" lon="4.558149185031653">
        <ele>1.568</ele>
        <time>2020-09-06T11:17:52Z</time>
      </trkpt>
      <trkpt lat="51.072348961606622" lon="4.557621041312814">
        <ele>2.777</ele>
        <time>2020-09-06T11:18:26Z</time>
      </trkpt>
      <trkpt lat="51.070737959817052" lon="4.555407967418432">
        <ele>2.025</ele>
        <time>2020-09-06T11:22:15Z</time>
      </trkpt>
      <trkpt lat="51.070277038961649" lon="4.55454396083951">
        <ele>-0.579</ele>
        <time>2020-09-06T11:23:15Z</time>
      </trkpt>
      <trkpt lat="51.070369323715568" lon="4.55435729585588">
        <ele>-0.843</ele>
        <time>2020-09-06T11:23:31Z</time>
      </trkpt>
      <trkpt lat="51.071274485439062" lon="4.55307025462389">
        <ele>1.153</ele>
        <time>2020-09-06T11:25:13Z</time>
      </trkpt>
      <trkpt lat="51.070851953700185" lon="4.550692224875093">
        <ele>0.096</ele>
        <time>2020-09-06T11:27:27Z</time>
      </trkpt>
      <trkpt lat="51.071358975023031" lon="4.550720471888781">
        <ele>8.430999999999999</ele>
        <time>2020-09-06T11:29:58Z</time>
      </trkpt>
      <trkpt lat="51.071610432118177" lon="4.550600526854396">
        <ele>-0.424</ele>
        <time>2020-09-06T11:32:18Z</time>
      </trkpt>
      <trkpt lat="51.072784988209605" lon="4.5475800242275">
        <ele>1.908</ele>
        <time>2020-09-06T11:32:46Z</time>
      </trkpt>
      <trkpt lat="51.073056729510427" lon="4.547116924077272">
        <ele>2.874</ele>
        <time>2020-09-06T11:33:04Z</time>
      </trkpt>
      <trkpt lat="51.073591243475676" lon="4.546764548867941">
        <ele>2.495</ele>
        <time>2020-09-06T11:33:30Z</time>
      </trkpt>
      <trkpt lat="51.073376918211579" lon="4.54210152849555">
        <ele>-0.251</ele>
        <time>2020-09-06T11:35:57Z</time>
      </trkpt>
      <trkpt lat="51.073878156021237" lon="4.541652845218778">
        <ele>0.36</ele>
        <time>2020-09-06T11:36:43Z</time>
      </trkpt>
      <trkpt lat="51.074145035818219" lon="4.541083965450525">
        <ele>-0.838</ele>
        <time>2020-09-06T11:36:51Z</time>
      </trkpt>
      <trkpt lat="51.073956023901701" lon="4.539532978087664">
        <ele>0.872</ele>
        <time>2020-09-06T11:37:05Z</time>
      </trkpt>
      <trkpt lat="51.073716972023249" lon="4.539213962852955">
        <ele>0.466</ele>
        <time>2020-09-06T11:37:10Z</time>
      </trkpt>
      <trkpt lat="51.073326962068677" lon="4.539190996438265">
        <ele>-0.826</ele>
        <time>2020-09-06T11:37:16Z</time>
      </trkpt>
      <trkpt lat="51.073016999289393" lon="4.539693994447589">
        <ele>-1.997</ele>
        <time>2020-09-06T11:37:22Z</time>
      </trkpt>
      <trkpt lat="51.072914991527796" lon="4.541412033140659">
        <ele>-0.423</ele>
        <time>2020-09-06T11:37:37Z</time>
      </trkpt>
      <trkpt lat="51.073135016486049" lon="4.541928023099899">
        <ele>-0.725</ele>
        <time>2020-09-06T11:37:45Z</time>
      </trkpt>
      <trkpt lat="51.073317658156157" lon="4.542140420526266" />
      <trkpt lat="51.073824260383844" lon="4.541631219908595" />
      <trkpt lat="51.074104551225901" lon="4.541035769507289" />
      <trkpt lat="51.074767475947738" lon="4.541009869426489" />
      <trkpt lat="51.074875267222524" lon="4.541562153026462" />
    </trkseg>
  </trk>

</gpx>